createdAt,value
2018-05-10T00:02:29.498Z,99550.48
2018-05-10T00:05:00.326Z,99548.45
2018-05-10T00:07:31.386Z,99541.32
2018-05-10T00:10:02.383Z,99543.39
2018-05-10T00:12:33.417Z,99534.37
2018-05-10T00:15:04.129Z,99535.53
2018-05-10T00:17:35.704Z,99544.52
2018-05-10T00:20:06.462Z,99545.05
2018-05-10T00:22:37.404Z,99543.91
2018-05-10T00:25:08.379Z,99553.13
2018-05-10T00:27:39.318Z,99553.52
2018-05-10T00:30:10.019Z,99549.05
2018-05-10T00:32:40.766Z,99549.41
2018-05-10T00:35:11.486Z,99552.31
2018-05-10T00:37:42.435Z,99547.12
2018-05-10T00:40:13.402Z,99555.98
2018-05-10T00:42:44.415Z,99554.14
2018-05-10T00:45:15.312Z,99558.23
2018-05-10T00:47:46.417Z,99566.08
2018-05-10T00:50:17.385Z,99572.05
2018-05-10T00:52:48.309Z,99571.55
2018-05-10T00:55:19.217Z,99564.72
2018-05-10T00:57:50.771Z,99568.46
2018-05-10T01:00:21.472Z,99563.41
2018-05-10T01:02:52.179Z,99565.41
2018-05-10T01:05:23.639Z,99561.59
2018-05-10T01:07:54.446Z,99563.37
2018-05-10T01:10:25.027Z,99565.48
2018-05-10T01:12:55.794Z,99562.20
2018-05-10T01:15:26.511Z,99556.25
2018-05-10T01:17:57.273Z,99547.75
2018-05-10T01:20:27.981Z,99544.34
2018-05-10T01:22:58.841Z,99546.45
2018-05-10T01:25:29.327Z,99545.66
2018-05-10T01:28:00.478Z,99538.95
2018-05-10T01:30:31.451Z,99537.12
2018-05-10T01:33:02.047Z,99547.70
2018-05-10T01:35:43.589Z,99544.53
2018-05-10T01:38:12.832Z,99543.81
2018-05-10T01:40:41.803Z,99546.80
2018-05-10T01:43:10.619Z,99546.18
2018-05-10T01:45:39.644Z,99550.78
2018-05-10T01:48:08.617Z,99549.66
2018-05-10T01:50:37.585Z,99551.18
2018-05-10T01:53:08.408Z,99552.42
2018-05-10T01:55:39.430Z,99555.61
2018-05-10T01:58:10.526Z,99552.92
2018-05-10T02:00:41.415Z,99550.38
2018-05-10T02:03:12.572Z,99554.59
2018-05-10T02:05:43.382Z,99556.33
2018-05-10T02:08:14.498Z,99561.91
2018-05-10T02:10:45.386Z,99555.84
2018-05-10T02:13:16.489Z,99552.22
2018-05-10T02:15:47.370Z,99555.48
2018-05-10T02:18:18.359Z,99555.90
2018-05-10T02:20:49.378Z,99557.55
2018-05-10T02:23:20.346Z,99551.59
2018-05-10T02:25:50.955Z,99556.43
2018-05-10T02:28:21.695Z,99549.13
2018-05-10T02:30:52.429Z,99554.98
2018-05-10T02:33:23.400Z,99554.16
2018-05-10T02:35:54.377Z,99551.02
2018-05-10T02:38:25.496Z,99541.54
2018-05-10T02:40:56.375Z,99544.03
2018-05-10T02:43:27.454Z,99545.05
2018-05-10T02:45:58.365Z,99540.93
2018-05-10T02:48:29.491Z,99545.44
2018-05-10T02:51:00.347Z,99547.73
2018-05-10T02:53:31.462Z,99547.73
2018-05-10T02:56:02.458Z,99537.22
2018-05-10T02:58:33.455Z,99546.77
2018-05-10T03:01:04.495Z,99543.56
2018-05-10T03:03:35.421Z,99538.85
2018-05-10T03:06:06.396Z,99538.92
2018-05-10T03:08:37.398Z,99536.59
2018-05-10T03:11:08.351Z,99538.11
2018-05-10T03:13:39.540Z,99538.41
2018-05-10T03:16:10.478Z,99535.23
2018-05-10T03:18:41.422Z,99537.48
2018-05-10T03:21:12.437Z,99543.05
2018-05-10T03:23:43.487Z,99548.70
2018-05-10T03:26:14.330Z,99551.37
2018-05-10T03:28:45.498Z,99551.48
2018-05-10T03:31:17.909Z,99551.48
2018-05-10T03:33:47.940Z,99547.66
2018-05-10T03:36:18.603Z,99551.37
2018-05-10T03:38:49.423Z,99549.83
2018-05-10T03:41:19.991Z,99546.95
2018-05-10T03:43:50.742Z,99543.97
2018-05-10T03:46:20.742Z,99548.17
2018-05-10T03:48:51.522Z,99545.61
2018-05-10T03:51:22.688Z,99548.50
2018-05-10T03:53:52.703Z,99550.75
2018-05-10T03:56:23.606Z,99553.32
2018-05-10T03:58:54.460Z,99550.54
2018-05-10T04:01:25.324Z,99549.02
2018-05-10T04:04:07.393Z,99550.77
2018-05-10T04:06:47.378Z,99553.63
2018-05-10T04:09:27.328Z,99542.94
2018-05-10T04:11:56.316Z,99546.84
2018-05-10T04:14:25.265Z,99556.12
2018-05-10T04:16:54.311Z,99543.13
2018-05-10T04:19:23.277Z,99542.52
2018-05-10T04:21:52.310Z,99553.41
2018-05-10T04:24:21.328Z,99553.72
2018-05-10T04:26:50.294Z,99553.63
2018-05-10T04:29:19.683Z,99554.03
2018-05-10T04:31:48.695Z,99555.96
2018-05-10T04:34:17.670Z,99555.68
2018-05-10T04:36:46.607Z,99544.25
2018-05-10T04:39:15.661Z,99545.91
2018-05-10T04:41:44.647Z,99554.13
2018-05-10T04:44:13.598Z,99554.66
2018-05-10T04:46:42.708Z,99565.97
2018-05-10T04:49:11.658Z,99560.03
2018-05-10T04:51:42.397Z,99564.66
2018-05-10T04:54:13.311Z,99557.75
2018-05-10T04:56:44.622Z,99567.44
2018-05-10T04:59:15.365Z,99563.72
2018-05-10T05:01:45.997Z,99562.16
2018-05-10T05:04:16.660Z,99574.58
2018-05-10T05:06:47.418Z,99571.20
2018-05-10T05:09:18.328Z,99568.83
2018-05-10T05:11:49.493Z,99574.80
2018-05-10T05:14:20.418Z,99574.06
2018-05-10T05:16:51.428Z,99577.91
2018-05-10T05:19:22.048Z,99580.30
2018-05-10T05:21:53.003Z,99587.67
2018-05-10T05:24:23.642Z,99592.08
2018-05-10T05:26:54.208Z,99586.39
2018-05-10T05:29:25.330Z,99595.23
2018-05-10T05:31:57.052Z,99599.88
2018-05-10T05:34:27.665Z,99609.83
2018-05-10T05:36:58.448Z,99617.64
2018-05-10T05:39:29.318Z,99620.05
2018-05-10T05:42:00.031Z,99618.48
2018-05-10T05:44:30.730Z,99621.77
2018-05-10T05:47:01.465Z,99623.00
2018-05-10T05:49:32.435Z,99621.16
2018-05-10T05:52:03.450Z,99624.39
2018-05-10T05:54:34.354Z,99631.61
2018-05-10T05:57:05.063Z,99625.43
2018-05-10T05:59:36.832Z,99619.57
2018-05-10T06:02:07.557Z,99625.43
2018-05-10T06:04:38.536Z,99626.05
2018-05-10T06:07:09.406Z,99623.99
2018-05-10T06:09:40.465Z,99628.20
2018-05-10T06:12:11.384Z,99631.50
2018-05-10T06:14:42.505Z,99627.44
2018-05-10T06:17:13.114Z,99630.73
2018-05-10T06:19:48.349Z,99637.32
2018-05-10T06:22:17.882Z,99633.11
2018-05-10T06:24:46.976Z,99636.82
2018-05-10T06:27:17.795Z,99633.91
2018-05-10T06:29:48.632Z,99631.46
2018-05-10T06:32:19.421Z,99632.83
2018-05-10T06:34:50.094Z,99638.70
2018-05-10T06:37:20.715Z,99635.28
2018-05-10T06:39:51.559Z,99647.42
2018-05-10T06:42:22.432Z,99638.01
2018-05-10T06:44:53.480Z,99648.42
2018-05-10T06:47:25.938Z,99639.64
2018-05-10T06:49:54.936Z,99656.41
2018-05-10T06:52:25.343Z,99655.38
2018-05-10T06:54:56.881Z,99652.63
2018-05-10T06:57:27.635Z,99652.80
2018-05-10T06:59:58.446Z,99660.70
2018-05-10T07:02:29.477Z,99660.13
2018-05-10T07:05:00.482Z,99662.22
2018-05-10T07:07:31.396Z,99657.80
2018-05-10T07:10:02.696Z,99662.55
2018-05-10T07:12:33.605Z,99662.80
2018-05-10T07:15:04.599Z,99662.53
2018-05-10T07:17:35.218Z,99666.77
2018-05-10T07:20:06.786Z,99658.81
2018-05-10T07:22:37.490Z,99669.95
2018-05-10T07:25:08.466Z,99663.39
2018-05-10T07:27:39.419Z,99656.89
2018-05-10T07:30:10.076Z,99662.66
2018-05-10T07:32:40.715Z,99664.98
2018-05-10T07:35:11.560Z,99667.08
2018-05-10T07:37:42.523Z,99673.33
2018-05-10T07:40:14.294Z,99671.89
2018-05-10T07:42:44.873Z,99672.36
2018-05-10T07:45:15.629Z,99672.05
2018-05-10T07:47:46.375Z,99681.42
2018-05-10T07:50:18.094Z,99684.13
2018-05-10T07:52:48.517Z,99682.30
2018-05-10T07:55:19.423Z,99682.41
2018-05-10T07:57:49.955Z,99681.37
2018-05-10T08:00:20.710Z,99681.97
2018-05-10T08:02:51.428Z,99684.83
2018-05-10T08:05:22.423Z,99679.41
2018-05-10T08:07:53.371Z,99684.59
2018-05-10T08:10:24.462Z,99677.78
2018-05-10T08:12:55.473Z,99680.44
2018-05-10T08:15:26.513Z,99677.33
2018-05-10T08:17:57.432Z,99681.66
2018-05-10T08:20:28.430Z,99680.67
2018-05-10T08:22:59.397Z,99680.61
2018-05-10T08:25:30.511Z,99685.53
2018-05-10T08:28:01.412Z,99681.79
2018-05-10T08:30:32.422Z,99682.20
2018-05-10T08:33:03.391Z,99691.72
2018-05-10T08:35:34.503Z,99696.41
2018-05-10T08:38:04.974Z,99697.38
2018-05-10T08:40:35.919Z,99700.23
2018-05-10T08:43:06.639Z,99708.91
2018-05-10T08:45:37.147Z,99703.19
2018-05-10T08:48:07.666Z,99702.31
2018-05-10T08:50:38.541Z,99706.39
2018-05-10T08:53:09.400Z,99705.68
2018-05-10T08:55:40.528Z,99705.27
2018-05-10T08:58:11.181Z,99697.45
2018-05-10T09:00:41.745Z,99701.41
2018-05-10T09:03:12.530Z,99707.81
2018-05-10T09:05:43.475Z,99700.21
2018-05-10T09:08:14.346Z,99703.34
2018-05-10T09:10:45.451Z,99709.98
2018-05-10T09:13:16.040Z,99707.91
2018-05-10T09:15:47.012Z,99704.67
2018-05-10T09:18:17.741Z,99698.46
2018-05-10T09:20:48.526Z,99692.98
2018-05-10T09:23:19.350Z,99698.91
2018-05-10T09:25:50.417Z,99696.94
2018-05-10T09:28:21.474Z,99687.57
2018-05-10T09:30:52.533Z,99687.28
2018-05-10T09:33:23.374Z,99687.66
2018-05-10T09:35:54.042Z,99680.41
2018-05-10T09:38:24.791Z,99681.84
2018-05-10T09:40:56.000Z,99675.72
2018-05-10T09:43:26.749Z,99674.19
2018-05-10T09:45:56.812Z,99678.66
2018-05-10T09:48:27.482Z,99672.82
2018-05-10T09:50:58.419Z,99675.98
2018-05-10T09:53:29.379Z,99683.40
2018-05-10T09:56:00.458Z,99678.61
2018-05-10T09:58:30.963Z,99682.27
2018-05-10T10:01:01.720Z,99675.73
2018-05-10T10:03:32.454Z,99678.03
2018-05-10T10:06:03.490Z,99676.86
2018-05-10T10:08:34.342Z,99681.34
2018-05-10T10:11:05.698Z,99682.77
2018-05-10T10:13:36.443Z,99679.27
2018-05-10T10:16:07.022Z,99679.98
2018-05-10T10:18:37.698Z,99684.16
2018-05-10T10:21:08.482Z,99682.38
2018-05-10T10:23:39.410Z,99676.00
2018-05-10T10:26:10.524Z,99678.14
2018-05-10T10:28:41.306Z,99682.59
2018-05-10T10:31:13.039Z,99683.43
2018-05-10T10:33:43.700Z,99683.63
2018-05-10T10:36:14.478Z,99683.72
2018-05-10T10:38:45.446Z,99684.41
2018-05-10T10:41:16.655Z,99673.53
2018-05-10T10:43:47.426Z,99684.47
2018-05-10T10:46:18.435Z,99688.82
2018-05-10T10:48:49.425Z,99686.13
2018-05-10T10:51:20.063Z,99695.13
2018-05-10T10:53:50.565Z,99688.91
2018-05-10T10:56:21.457Z,99684.43
2018-05-10T10:58:52.360Z,99689.19
2018-05-10T11:01:23.470Z,99687.41
2018-05-10T11:03:54.347Z,99683.76
2018-05-10T11:06:25.551Z,99687.58
2018-05-10T11:08:56.321Z,99684.86
2018-05-10T11:11:27.418Z,99680.50
2018-05-10T11:13:58.402Z,99680.10
2018-05-10T11:16:29.351Z,99678.84
2018-05-10T11:19:00.398Z,99679.42
2018-05-10T11:21:31.386Z,99668.91
2018-05-10T11:24:02.427Z,99661.29
2018-05-10T11:26:33.566Z,99669.87
2018-05-10T11:29:04.368Z,99669.03
2018-05-10T11:31:36.175Z,99663.30
2018-05-10T11:34:06.674Z,99661.50
2018-05-10T11:36:37.521Z,99665.84
2018-05-10T11:39:08.415Z,99667.47
2018-05-10T11:41:39.587Z,99664.13
2018-05-10T11:44:10.455Z,99666.17
2018-05-10T11:46:41.402Z,99670.35
2018-05-10T11:49:12.334Z,99661.22
2018-05-10T11:51:43.423Z,99663.78
2018-05-10T11:54:13.925Z,99671.41
2018-05-10T11:56:44.693Z,99662.12
2018-05-10T11:59:15.366Z,99656.44
2018-05-10T12:01:46.011Z,99665.20
2018-05-10T12:04:16.685Z,99663.67
2018-05-10T12:06:47.581Z,99670.61
2018-05-10T12:09:18.486Z,99664.73
2018-05-10T12:11:49.434Z,99656.55
2018-05-10T12:14:20.138Z,99656.88
2018-05-10T12:16:50.862Z,99652.08
2018-05-10T12:19:21.579Z,99642.72
2018-05-10T12:21:52.501Z,99646.09
2018-05-10T12:24:23.310Z,99641.95
2018-05-10T12:26:54.002Z,99637.75
2018-05-10T12:29:24.719Z,99642.38
2018-05-10T12:31:54.126Z,99642.75
2018-05-10T12:34:25.666Z,99641.77
2018-05-10T12:36:56.498Z,99649.05
2018-05-10T12:39:27.356Z,99656.86
2018-05-10T12:41:58.439Z,99658.26
2018-05-10T12:44:29.366Z,99662.16
2018-05-10T12:47:00.456Z,99656.94
2018-05-10T12:49:31.320Z,99664.80
2018-05-10T12:52:02.505Z,99664.13
2018-05-10T12:54:32.976Z,99663.83
2018-05-10T12:57:03.747Z,99668.88
2018-05-10T12:59:34.431Z,99662.84
2018-05-10T13:02:05.223Z,99663.11
2018-05-10T13:04:36.361Z,99651.43
2018-05-10T13:07:07.454Z,99653.27
2018-05-10T13:09:38.353Z,99656.89
2018-05-10T13:12:09.460Z,99649.77
2018-05-10T13:14:40.082Z,99640.19
2018-05-10T13:17:10.795Z,99644.44
2018-05-10T13:19:41.456Z,99647.97
2018-05-10T13:22:12.412Z,99640.35
2018-05-10T13:24:43.405Z,99637.94
2018-05-10T13:27:14.162Z,99635.37
2018-05-10T13:29:45.214Z,99628.16
2018-05-10T13:32:15.985Z,99621.13
2018-05-10T13:34:46.689Z,99615.30
2018-05-10T13:37:17.469Z,99616.40
2018-05-10T13:39:48.314Z,99620.34
2018-05-10T13:42:19.462Z,99628.54
2018-05-10T13:44:50.374Z,99624.77
2018-05-10T13:47:21.118Z,99636.46
2018-05-10T13:49:51.987Z,99644.88
2018-05-10T13:52:22.737Z,99639.03
2018-05-10T13:54:53.453Z,99638.98
2018-05-10T13:57:24.054Z,99636.36
2018-05-10T13:59:54.762Z,99636.36
2018-05-10T14:02:25.516Z,99640.66
2018-05-10T14:04:56.401Z,99638.28
2018-05-10T14:07:27.413Z,99644.08
2018-05-10T14:09:58.460Z,99642.98
2018-05-10T14:12:29.550Z,99639.91
2018-05-10T14:15:00.536Z,99642.94
2018-05-10T14:17:31.321Z,99637.81
2018-05-10T14:20:02.322Z,99633.84
2018-05-10T14:22:33.459Z,99629.34
2018-05-10T14:25:04.338Z,99623.95
2018-05-10T14:27:35.379Z,99632.19
2018-05-10T14:30:06.392Z,99633.84
2018-05-10T14:32:37.487Z,99635.22
2018-05-10T14:35:08.416Z,99639.16
2018-05-10T14:37:39.426Z,99639.59
2018-05-10T14:40:10.044Z,99640.92
2018-05-10T14:42:40.624Z,99635.89
2018-05-10T14:45:11.366Z,99644.17
2018-05-10T14:47:42.042Z,99641.44
2018-05-10T14:50:12.693Z,99639.11
2018-05-10T14:52:43.388Z,99645.40
2018-05-10T14:55:13.985Z,99644.58
2018-05-10T14:57:44.765Z,99644.28
2018-05-10T15:00:14.729Z,99645.65
2018-05-10T15:02:45.556Z,99642.54
2018-05-10T15:05:16.366Z,99636.46
2018-05-10T15:07:47.446Z,99644.54
2018-05-10T15:10:18.049Z,99645.48
2018-05-10T15:12:48.849Z,99645.19
2018-05-10T15:15:19.678Z,99642.90
2018-05-10T15:17:50.450Z,99644.27
2018-05-10T15:20:21.537Z,99643.36
2018-05-10T15:22:52.461Z,99648.26
2018-05-10T15:25:23.433Z,99651.48
2018-05-10T15:27:53.361Z,99661.86
2018-05-10T15:30:24.114Z,99658.16
2018-05-10T15:32:55.383Z,99654.90
2018-05-10T15:35:26.494Z,99658.02
2018-05-10T15:37:57.429Z,99653.24
2018-05-10T15:40:28.472Z,99650.14
2018-05-10T15:42:59.419Z,99656.55
2018-05-10T15:45:30.451Z,99660.63
2018-05-10T15:48:01.346Z,99662.67
2018-05-10T15:50:32.449Z,99663.37
2018-05-10T15:53:03.311Z,99668.94
2018-05-10T15:55:34.048Z,99673.42
2018-05-10T15:58:04.847Z,99671.66
2018-05-10T16:00:35.691Z,99673.95
2018-05-10T16:03:06.435Z,99673.02
2018-05-10T16:05:37.455Z,99677.37
2018-05-10T16:08:08.359Z,99670.44
2018-05-10T16:10:39.369Z,99676.28
2018-05-10T16:13:10.344Z,99678.33
2018-05-10T16:15:41.063Z,99676.14
2018-05-10T16:18:11.749Z,99681.16
2018-05-10T16:20:42.461Z,99684.57
2018-05-10T16:23:13.309Z,99690.28
2018-05-10T16:25:44.697Z,99689.05
2018-05-10T16:28:57.753Z,99686.31
2018-05-10T16:31:26.958Z,99692.97
2018-05-10T16:33:55.955Z,99694.29
2018-05-10T16:36:24.975Z,99688.70
2018-05-10T16:38:54.004Z,99694.28
2018-05-10T16:41:22.979Z,99693.05
2018-05-10T16:43:51.818Z,99691.80
2018-05-10T16:46:20.869Z,99693.81
2018-05-10T16:48:50.013Z,99700.33
2018-05-10T16:51:19.162Z,99698.91
2018-05-10T16:53:48.171Z,99696.46
2018-05-10T16:56:17.139Z,99700.62
2018-05-10T16:58:46.094Z,99705.90
2018-05-10T17:01:15.108Z,99702.22
2018-05-10T17:03:44.078Z,99707.20
2018-05-10T17:06:13.467Z,99714.64
2018-05-10T17:08:42.472Z,99715.72
2018-05-10T17:11:11.428Z,99713.36
2018-05-10T17:13:40.384Z,99724.62
2018-05-10T17:16:09.617Z,99721.88
2018-05-10T17:18:38.655Z,99726.16
2018-05-10T17:21:07.819Z,99723.69
2018-05-10T17:23:36.804Z,99727.87
2018-05-10T17:26:05.504Z,99732.81
2018-05-10T17:28:36.402Z,99738.73
2018-05-10T17:31:06.967Z,99737.57
2018-05-10T17:33:37.727Z,99747.88
2018-05-10T17:36:08.405Z,99751.48
2018-05-10T17:38:39.359Z,99750.88
2018-05-10T17:41:10.444Z,99754.10
2018-05-10T17:43:41.545Z,99759.72
2018-05-10T17:46:12.437Z,99763.08
2018-05-10T17:48:43.420Z,99772.77
2018-05-10T17:51:14.318Z,99774.31
2018-05-10T17:53:45.032Z,99776.13
2018-05-10T17:56:15.710Z,99776.88
2018-05-10T17:58:46.787Z,99776.48
2018-05-10T18:01:17.550Z,99780.11
2018-05-10T18:03:48.455Z,99784.92
2018-05-10T18:06:19.470Z,99782.39
2018-05-10T18:08:50.911Z,99783.30
2018-05-10T18:11:21.818Z,99787.30
2018-05-10T18:13:53.362Z,99794.63
2018-05-10T18:16:22.713Z,99796.20
2018-05-10T18:18:53.514Z,99794.27
2018-05-10T18:21:24.365Z,99793.37
2018-05-10T18:23:54.430Z,99808.42
2018-05-10T18:26:25.390Z,99803.72
2018-05-10T18:28:56.421Z,99808.48
2018-05-10T18:31:28.105Z,99819.53
2018-05-10T18:33:58.655Z,99823.91
2018-05-10T18:36:29.398Z,99827.38
2018-05-10T18:39:00.388Z,99831.07
2018-05-10T18:41:30.968Z,99832.29
2018-05-10T18:44:01.759Z,99828.77
2018-05-10T18:46:31.819Z,99829.62
2018-05-10T18:49:02.741Z,99837.62
2018-05-10T18:51:33.597Z,99848.63
2018-05-10T18:54:04.501Z,99853.95
2018-05-10T18:56:36.009Z,99857.22
2018-05-10T18:59:06.761Z,99859.13
2018-05-10T19:01:38.061Z,99867.62
2018-05-10T19:04:08.922Z,99865.16
2018-05-10T19:06:38.878Z,99877.30
2018-05-10T19:09:09.673Z,99881.86
2018-05-10T19:11:40.355Z,99885.84
2018-05-10T19:14:11.808Z,99888.38
2018-05-10T19:16:42.504Z,99901.27
2018-05-10T19:19:13.399Z,99909.91
2018-05-10T19:21:44.432Z,99913.98
2018-05-10T19:24:15.951Z,99927.44
2018-05-10T19:26:45.881Z,99933.37
2018-05-10T19:29:16.698Z,99932.69
2018-05-10T19:31:47.443Z,99937.77
2018-05-10T19:34:18.056Z,99949.85
2018-05-10T19:36:48.738Z,99964.83
2018-05-10T19:39:19.537Z,99977.89
2018-05-10T19:41:50.424Z,99972.00
2018-05-10T19:44:21.493Z,99978.86
2018-05-10T19:46:52.385Z,99975.55
2018-05-10T19:49:24.263Z,99961.18
2018-05-10T19:51:54.729Z,99958.73
2018-05-10T19:54:25.625Z,99954.91
2018-05-10T19:56:56.391Z,99953.67
2018-05-10T19:59:27.463Z,99935.25
2018-05-10T20:01:58.134Z,99944.86
2018-05-10T20:04:28.666Z,99964.75
2018-05-10T20:06:59.390Z,99971.56
2018-05-10T20:09:31.344Z,99959.98
2018-05-10T20:12:02.059Z,99979.31
2018-05-10T20:14:32.799Z,99978.72
2018-05-10T20:17:04.878Z,99978.18
2018-05-10T20:19:35.417Z,99982.17
2018-05-10T20:22:06.101Z,99985.34
2018-05-10T20:24:36.799Z,100006.24
2018-05-10T20:27:07.399Z,100027.53
2018-05-10T20:29:38.168Z,100058.03
2018-05-10T20:32:08.327Z,100074.70
2018-05-10T20:34:39.122Z,100058.12
2018-05-10T20:37:09.828Z,100043.00
2018-05-10T20:39:40.587Z,100006.02
2018-05-10T20:42:11.511Z,99978.53
2018-05-10T20:44:42.725Z,99982.95
2018-05-10T20:47:13.442Z,99997.72
2018-05-10T20:49:44.515Z,100003.75
2018-05-10T20:52:15.455Z,100002.58
2018-05-10T20:54:46.487Z,100006.55
2018-05-10T20:57:17.477Z,100019.34
2018-05-10T20:59:48.555Z,100017.14
2018-05-10T21:02:19.522Z,100022.00
2018-05-10T21:04:49.478Z,100022.56
2018-05-10T21:07:20.157Z,100023.16
2018-05-10T21:09:51.970Z,100024.93
2018-05-10T21:12:45.741Z,100022.75
2018-05-10T21:15:15.116Z,100032.68
2018-05-10T21:17:44.062Z,100041.55
2018-05-10T21:20:13.075Z,100046.08
2018-05-10T21:22:42.395Z,100052.38
2018-05-10T21:25:11.820Z,100062.89
2018-05-10T21:27:41.060Z,100063.43
2018-05-10T21:30:10.104Z,100063.51
2018-05-10T21:32:39.050Z,100068.27
2018-05-10T21:35:08.015Z,100075.91
2018-05-10T21:37:37.080Z,100080.86
2018-05-10T21:40:06.031Z,100082.09
2018-05-10T21:42:34.972Z,100085.44
2018-05-10T21:45:04.183Z,100085.06
2018-05-10T21:47:34.641Z,100085.39
2018-05-10T21:50:06.321Z,100077.45
2018-05-10T21:52:36.078Z,100081.79
2018-05-10T21:55:06.862Z,100076.07
2018-05-10T21:57:37.782Z,100092.00
2018-05-10T22:00:08.857Z,100080.83
2018-05-10T22:02:39.548Z,100090.16
2018-05-10T22:05:10.638Z,100099.74
2018-05-10T22:07:41.508Z,100108.25
2018-05-10T22:10:11.483Z,100128.08
2018-05-10T22:12:42.521Z,100137.58
2018-05-10T22:15:13.497Z,100134.17
2018-05-10T22:17:44.117Z,100121.87
2018-05-10T22:20:14.888Z,100129.31
2018-05-10T22:22:45.660Z,100124.66
2018-05-10T22:25:16.268Z,100143.16
2018-05-10T22:27:46.944Z,100138.42
2018-05-10T22:30:17.727Z,100142.33
2018-05-10T22:32:47.802Z,100150.81
2018-05-10T22:35:18.879Z,100158.75
2018-05-10T22:37:49.504Z,100158.66
2018-05-10T22:40:20.533Z,100164.02
2018-05-10T22:42:51.411Z,100167.84
2018-05-10T22:45:22.117Z,100168.34
2018-05-10T22:47:52.809Z,100174.34
2018-05-10T22:50:23.590Z,100166.28
2018-05-10T22:52:54.537Z,100172.06
2018-05-10T22:55:25.609Z,100176.70
2018-05-10T22:57:56.494Z,100173.20
2018-05-10T23:00:27.495Z,100163.70
2018-05-10T23:02:58.482Z,100166.57
2018-05-10T23:05:33.000Z,100168.12
2018-05-10T23:08:01.987Z,100168.31
2018-05-10T23:10:31.947Z,100163.57
2018-05-10T23:13:02.708Z,100157.69
2018-05-10T23:15:33.474Z,100159.86
2018-05-10T23:18:04.497Z,100154.16
2018-05-10T23:20:35.559Z,100149.14
2018-05-10T23:23:06.555Z,100143.34
2018-05-10T23:25:37.024Z,100145.39
2018-05-10T23:28:07.775Z,100142.88
2018-05-10T23:30:38.498Z,100148.28
2018-05-10T23:33:09.500Z,100132.09
2018-05-10T23:35:40.580Z,100128.28
2018-05-10T23:38:11.609Z,100143.76
2018-05-10T23:40:42.506Z,100155.04
2018-05-10T23:43:13.507Z,100153.36
2018-05-10T23:45:44.551Z,100160.02
2018-05-10T23:48:15.502Z,100161.52
2018-05-10T23:50:46.493Z,100154.99
2018-05-10T23:53:17.674Z,100148.64
2018-05-10T23:55:48.542Z,100143.33
2018-05-10T23:58:19.602Z,100139.84
